Metar z pełnej godziny Komunikat METAR ze strony awiacja.imgw.pl Metar G00 EPSC METAR EPSC 220600Z 28013KT 9999 -RA FEW003 OVC006 05/04 Q1027 =